Time;durP1;ratioP1;P1;durP2;ratioP2;P2;SDS_P1;SDS_P2;PMS_P1;PMS_P2;Temp;Humidity;BMP_temperature;BMP_pressure;BME280_temperature;BME280_humidity;BME280_pressure;Samples;Min_cycle;Max_cycle;Signal;HPM_P1;HPM_P2
2023/04/16 00:00:30;;;;;;;13.55;4.25;;;19.60;78.40;;;;;;5012442;28;20025;-74
2023/04/16 00:02:56;;;;;;;7.88;3.70;;;19.60;78.40;;;;;;5012400;28;20018;-73
2023/04/16 00:05:22;;;;;;;10.57;5.07;;;19.60;78.30;;;;;;5010964;28;20630;-74
2023/04/16 00:07:50;;;;;;;10.23;3.85;;;19.60;78.30;;;;;;5012604;28;20022;-73
2023/04/16 00:10:16;;;;;;;13.13;4.03;;;19.50;78.30;;;;;;5025376;28;20029;-72
2023/04/16 00:12:42;;;;;;;15.18;4.57;;;19.50;78.40;;;;;;5012515;28;20029;-73
2023/04/16 00:15:07;;;;;;;12.30;4.72;;;19.50;78.30;;;;;;5009087;28;20014;-73
2023/04/16 00:17:33;;;;;;;11.75;4.57;;;19.50;78.30;;;;;;5011782;28;20036;-73
2023/04/16 00:19:58;;;;;;;10.93;3.47;;;19.50;78.30;;;;;;5010057;28;20446;-74
2023/04/16 00:22:24;;;;;;;14.73;4.93;;;19.50;78.30;;;;;;5013467;28;20036;-73
2023/04/16 00:24:50;;;;;;;9.77;4.05;;;19.50;78.30;;;;;;5011870;28;20022;-72
2023/04/16 00:27:15;;;;;;;8.43;3.85;;;19.50;78.30;;;;;;5013232;28;20037;-73
2023/04/16 00:29:41;;;;;;;15.90;3.97;;;19.50;78.30;;;;;;5014019;28;20399;-74
2023/04/16 00:32:06;;;;;;;13.07;4.47;;;19.50;78.30;;;;;;5013621;28;20030;-73
2023/04/16 00:34:32;;;;;;;12.23;4.45;;;19.50;78.30;;;;;;5011681;28;20030;-73
2023/04/16 00:36:58;;;;;;;13.88;4.38;;;19.50;78.30;;;;;;5010459;28;20032;-74
2023/04/16 00:39:23;;;;;;;15.57;4.07;;;19.50;78.30;;;;;;5027444;28;20026;-74
2023/04/16 00:41:49;;;;;;;11.15;3.97;;;19.50;78.30;;;;;;5029053;28;20046;-73
2023/04/16 00:44:15;;;;;;;14.80;4.28;;;19.50;78.30;;;;;;5028584;28;20160;-73
2023/04/16 00:46:41;;;;;;;11.40;4.05;;;19.50;78.30;;;;;;5012876;28;20129;-73
2023/04/16 00:49:06;;;;;;;13.48;4.40;;;19.50;78.30;;;;;;5013905;28;20025;-72
2023/04/16 00:51:34;;;;;;;12.70;4.20;;;19.40;78.30;;;;;;5012406;28;20117;-73
2023/04/16 00:54:01;;;;;;;11.55;4.07;;;19.50;78.30;;;;;;5013387;28;20033;-73
2023/04/16 00:56:27;;;;;;;10.68;4.10;;;19.50;78.30;;;;;;5027548;28;20030;-72
2023/04/16 00:58:54;;;;;;;12.65;4.20;;;19.50;78.40;;;;;;5027835;28;20029;-73
2023/04/16 01:01:19;;;;;;;11.48;4.53;;;19.40;78.30;;;;;;5012530;28;20026;-73
2023/04/16 01:03:47;;;;;;;10.35;4.00;;;19.40;78.30;;;;;;5012740;28;20040;-73
2023/04/16 01:06:13;;;;;;;8.77;3.72;;;19.40;78.30;;;;;;5011906;28;20025;-73
2023/04/16 01:08:39;;;;;;;9.77;4.18;;;19.40;78.30;;;;;;5011424;28;20025;-73
2023/04/16 01:11:05;;;;;;;11.38;3.88;;;19.40;78.20;;;;;;5008795;28;20037;-73
2023/04/16 01:13:31;;;;;;;11.55;4.35;;;19.40;78.30;;;;;;5011509;28;20487;-73
2023/04/16 01:15:57;;;;;;;10.25;3.58;;;19.40;78.30;;;;;;5011444;28;20022;-73
2023/04/16 01:18:23;;;;;;;13.35;4.35;;;19.40;78.30;;;;;;5011661;28;20034;-74
2023/04/16 01:20:50;;;;;;;13.52;3.80;;;19.40;78.40;;;;;;5011193;28;20026;-73
2023/04/16 01:23:17;;;;;;;8.27;3.53;;;19.40;78.30;;;;;;5010132;28;20087;-74
2023/04/16 01:25:43;;;;;;;10.20;3.78;;;19.40;78.30;;;;;;5010713;28;20088;-73
2023/04/16 01:28:09;;;;;;;9.88;3.65;;;19.40;78.30;;;;;;5008983;28;20026;-73
2023/04/16 01:30:35;;;;;;;11.32;4.18;;;19.40;78.30;;;;;;5012130;28;20076;-74
2023/04/16 01:33:00;;;;;;;9.20;3.70;;;19.40;78.30;;;;;;5012104;28;20029;-73
2023/04/16 01:35:26;;;;;;;8.95;3.63;;;19.40;78.30;;;;;;5010885;28;20030;-73
2023/04/16 01:37:52;;;;;;;11.38;3.95;;;19.30;78.20;;;;;;5011763;28;20018;-74
2023/04/16 01:40:17;;;;;;;11.27;3.50;;;19.30;78.20;;;;;;5012376;28;20357;-73
2023/04/16 01:42:43;;;;;;;12.65;3.92;;;19.30;78.20;;;;;;5011486;28;20030;-74
2023/04/16 01:45:09;;;;;;;11.32;3.83;;;19.30;78.10;;;;;;5004503;28;20364;-73
2023/04/16 01:47:35;;;;;;;8.40;2.85;;;19.30;78.20;;;;;;5005895;28;20030;-74
2023/04/16 01:50:01;;;;;;;9.13;3.47;;;19.30;78.20;;;;;;5002182;28;20088;-73
2023/04/16 01:52:26;;;;;;;8.38;3.47;;;19.30;78.20;;;;;;5004964;28;20041;-73
2023/04/16 01:54:52;;;;;;;11.90;3.83;;;19.30;78.20;;;;;;5004545;28;20022;-74
2023/04/16 01:57:17;;;;;;;8.27;3.22;;;19.30;78.20;;;;;;5009932;28;20021;-74
2023/04/16 01:59:43;;;;;;;11.00;3.15;;;19.30;78.20;;;;;;5010036;28;20018;-73
2023/04/16 02:02:10;;;;;;;9.63;3.22;;;19.30;78.10;;;;;;5008401;28;20434;-73
2023/04/16 02:04:44;;;;;;;7.28;3.38;;;19.30;78.20;;;;;;5005302;28;20030;-73
2023/04/16 02:07:11;;;;;;;8.93;3.75;;;19.30;78.20;;;;;;5007572;28;20026;-74
2023/04/16 02:09:38;;;;;;;8.00;4.07;;;19.30;78.20;;;;;;5019057;28;20109;-74
2023/04/16 02:12:04;;;;;;;11.48;3.60;;;19.30;78.10;;;;;;5014815;28;20048;-73
2023/04/16 02:14:33;;;;;;;7.28;3.60;;;19.30;78.10;;;;;;5006036;28;20031;-73
2023/04/16 02:16:59;;;;;;;12.48;4.00;;;19.30;78.10;;;;;;4996520;28;20407;-72
2023/04/16 02:19:25;;;;;;;7.43;2.97;;;19.30;78.10;;;;;;5006443;28;20050;-73
2023/04/16 02:21:52;;;;;;;7.88;3.22;;;19.30;78.10;;;;;;4999458;28;20041;-74
2023/04/16 02:24:18;;;;;;;10.52;3.65;;;19.30;78.20;;;;;;5018280;28;20065;-73
2023/04/16 02:26:44;;;;;;;8.38;3.75;;;19.30;78.20;;;;;;4997326;28;20495;-74
2023/04/16 02:29:09;;;;;;;7.70;3.67;;;19.30;78.10;;;;;;5005420;28;20025;-74
2023/04/16 02:31:35;;;;;;;6.07;2.90;;;19.30;78.10;;;;;;5001809;28;20056;-73
2023/04/16 02:34:01;;;;;;;7.68;3.42;;;19.20;78.10;;;;;;5008745;28;20374;-72
2023/04/16 02:36:27;;;;;;;6.82;3.13;;;19.20;78.10;;;;;;5008948;28;20083;-74
2023/04/16 02:38:52;;;;;;;9.65;3.45;;;19.30;78.10;;;;;;5009202;28;20395;-72
2023/04/16 02:41:18;;;;;;;10.18;3.90;;;19.30;78.10;;;;;;5008673;28;20108;-73
2023/04/16 02:43:44;;;;;;;9.55;3.20;;;19.20;78.00;;;;;;5006708;28;20479;-73
2023/04/16 02:46:09;;;;;;;7.88;3.28;;;19.20;78.10;;;;;;5005925;28;20022;-73
2023/04/16 02:48:35;;;;;;;6.57;3.03;;;19.20;78.10;;;;;;5021928;28;20113;-72
2023/04/16 02:51:00;;;;;;;7.03;3.05;;;19.20;78.10;;;;;;5008771;28;20029;-73
2023/04/16 02:53:26;;;;;;;10.07;3.45;;;19.20;78.10;;;;;;5007926;28;20034;-73
2023/04/16 02:55:53;;;;;;;6.72;3.00;;;19.20;78.10;;;;;;5004755;28;20032;-73
2023/04/16 02:58:24;;;;;;;7.72;3.17;;;19.20;78.10;;;;;;5005081;28;20080;-73
2023/04/16 03:00:50;;;;;;;7.72;3.47;;;19.20;78.00;;;;;;5002913;28;20022;-72
2023/04/16 03:03:16;;;;;;;8.38;3.10;;;19.20;78.10;;;;;;5008277;28;20024;-73
2023/04/16 03:05:42;;;;;;;7.60;3.33;;;19.20;78.20;;;;;;5008414;28;20017;-74
2023/04/16 03:08:07;;;;;;;6.45;3.03;;;19.20;78.00;;;;;;5004753;28;20539;-72
2023/04/16 03:10:36;;;;;;;7.22;3.30;;;19.20;78.00;;;;;;5020167;28;20030;-73
2023/04/16 03:13:03;;;;;;;6.80;3.20;;;19.20;78.00;;;;;;5023894;28;20049;-73
2023/04/16 03:15:29;;;;;;;10.02;2.72;;;19.20;78.00;;;;;;5003163;28;20030;-73
2023/04/16 03:17:55;;;;;;;4.97;2.90;;;19.20;78.00;;;;;;5006470;28;20494;-73
2023/04/16 03:20:21;;;;;;;7.28;3.25;;;19.20;78.10;;;;;;5006580;28;20105;-73
2023/04/16 03:22:47;;;;;;;5.95;2.97;;;19.20;78.00;;;;;;5010966;28;20033;-73
2023/04/16 03:25:13;;;;;;;5.18;2.85;;;19.20;78.10;;;;;;5003315;28;20109;-74
2023/04/16 03:27:38;;;;;;;9.38;3.53;;;19.20;78.00;;;;;;5004195;28;20105;-73
2023/04/16 03:30:06;;;;;;;9.77;3.03;;;19.20;78.00;;;;;;5005344;28;20030;-74
2023/04/16 03:32:31;;;;;;;7.15;2.75;;;19.20;78.00;;;;;;5001672;28;20103;-72
2023/04/16 03:34:57;;;;;;;5.53;2.40;;;19.20;78.00;;;;;;5006548;28;20121;-73
2023/04/16 03:37:22;;;;;;;11.38;3.53;;;19.20;78.00;;;;;;5001372;28;20108;-74
2023/04/16 03:39:48;;;;;;;8.02;2.83;;;19.10;78.00;;;;;;5006986;28;20025;-73
2023/04/16 03:42:14;;;;;;;5.43;2.80;;;19.20;78.00;;;;;;5005518;28;20509;-72
2023/04/16 03:44:40;;;;;;;8.50;2.95;;;19.20;78.00;;;;;;5008634;28;20065;-73
2023/04/16 03:47:05;;;;;;;8.32;3.17;;;19.20;78.00;;;;;;5004059;28;20630;-72
2023/04/16 03:49:31;;;;;;;6.70;3.00;;;19.20;78.00;;;;;;5011277;28;20530;-73
2023/04/16 03:51:56;;;;;;;6.57;2.65;;;19.10;78.00;;;;;;5005425;28;20045;-73
2023/04/16 03:54:22;;;;;;;7.60;2.75;;;19.10;78.00;;;;;;5012023;28;20026;-73
2023/04/16 03:56:47;;;;;;;8.85;3.00;;;19.10;77.90;;;;;;5012207;28;20031;-73
2023/04/16 03:59:13;;;;;;;7.50;3.05;;;19.10;78.00;;;;;;5013992;28;20017;-74
2023/04/16 04:01:39;;;;;;;5.25;2.90;;;19.10;78.00;;;;;;5014405;28;21417;-73
2023/04/16 04:04:04;;;;;;;6.15;2.95;;;19.10;78.00;;;;;;5012598;28;20658;-73
2023/04/16 04:06:30;;;;;;;8.90;2.97;;;19.10;78.00;;;;;;5012171;28;20060;-74
2023/04/16 04:08:56;;;;;;;9.35;2.90;;;19.10;78.00;;;;;;5012958;28;20049;-73
2023/04/16 04:11:21;;;;;;;4.85;2.65;;;19.10;77.90;;;;;;5013881;28;20037;-72
2023/04/16 04:13:47;;;;;;;6.70;2.72;;;19.10;77.90;;;;;;5012965;28;20021;-73
2023/04/16 04:16:12;;;;;;;5.60;3.08;;;19.10;77.90;;;;;;5013783;28;20092;-73
2023/04/16 04:18:38;;;;;;;5.10;2.65;;;19.10;78.80;;;;;;5014358;28;20021;-73
2023/04/16 04:21:08;;;;;;;7.22;2.70;;;19.10;78.00;;;;;;5013006;28;20022;-72
2023/04/16 04:23:36;;;;;;;4.95;2.90;;;19.10;77.90;;;;;;5013449;28;20450;-73
2023/04/16 04:26:02;;;;;;;5.20;2.97;;;19.10;78.00;;;;;;5012894;28;20536;-73
2023/04/16 04:28:29;;;;;;;6.05;2.97;;;19.10;77.90;;;;;;5013237;28;20022;-73
2023/04/16 04:30:55;;;;;;;5.07;2.70;;;19.10;77.90;;;;;;5013200;28;20026;-73
2023/04/16 04:33:20;;;;;;;4.45;2.42;;;19.10;77.90;;;;;;5010080;28;20034;-73
2023/04/16 04:35:46;;;;;;;6.25;2.72;;;19.00;77.90;;;;;;5011860;28;20028;-73
2023/04/16 04:38:11;;;;;;;7.72;2.95;;;19.10;78.00;;;;;;5012954;28;20018;-73
2023/04/16 04:40:37;;;;;;;6.63;2.20;;;19.10;77.90;;;;;;5009403;28;20029;-73
2023/04/16 04:43:03;;;;;;;5.20;2.22;;;19.10;77.90;;;;;;5028443;28;20037;-73
2023/04/16 04:45:29;;;;;;;8.63;2.83;;;19.10;77.90;;;;;;5009234;28;20018;-73
2023/04/16 04:47:54;;;;;;;5.22;2.60;;;19.10;78.00;;;;;;5010792;28;20091;-73
2023/04/16 04:50:20;;;;;;;5.30;2.33;;;19.10;78.80;;;;;;5006137;28;20033;-74
2023/04/16 04:52:46;;;;;;;7.18;2.72;;;19.20;78.00;;;;;;5012828;28;20026;-72
2023/04/16 04:55:14;;;;;;;27.48;3.88;;;19.20;78.20;;;;;;5021937;28;20025;-72
2023/04/16 04:57:40;;;;;;;13.70;2.42;;;19.20;79.80;;;;;;5009321;28;20022;-70
2023/04/16 05:00:06;;;;;;;33.40;3.00;;;19.20;79.40;;;;;;5004371;28;20085;-74
2023/04/16 05:02:32;;;;;;;13.95;2.22;;;19.20;79.60;;;;;;5011624;28;20030;-74
2023/04/16 05:04:58;;;;;;;20.48;2.53;;;19.30;79.60;;;;;;5002473;28;20670;-73
2023/04/16 05:07:23;;;;;;;17.17;2.63;;;19.30;79.50;;;;;;5009150;28;20534;-73
2023/04/16 05:09:49;;;;;;;7.55;2.63;;;19.30;79.30;;;;;;5007279;28;20034;-74
2023/04/16 05:12:15;;;;;;;17.15;2.17;;;19.30;79.30;;;;;;5006332;28;20076;-73
2023/04/16 05:14:41;;;;;;;9.65;1.90;;;19.30;79.10;;;;;;5008878;28;20018;-74
2023/04/16 05:17:06;;;;;;;13.07;2.25;;;19.40;79.10;;;;;;5010394;28;20017;-74
2023/04/16 05:19:32;;;;;;;18.70;2.13;;;19.40;79.10;;;;;;5009092;28;20025;-74
2023/04/16 05:21:58;;;;;;;15.50;1.73;;;19.40;79.10;;;;;;5010513;28;20018;-73
2023/04/16 05:24:23;;;;;;;2.88;1.60;;;19.40;79.00;;;;;;5009435;28;20030;-73
2023/04/16 05:26:49;;;;;;;5.63;1.67;;;19.40;78.90;;;;;;5006569;28;20058;-72
2023/04/16 05:29:15;;;;;;;11.10;1.77;;;19.40;78.80;;;;;;5010867;28;20400;-73
2023/04/16 05:31:40;;;;;;;9.15;1.95;;;19.40;78.80;;;;;;5011131;28;20037;-73
2023/04/16 05:34:06;;;;;;;9.90;1.55;;;19.50;78.80;;;;;;5012520;28;20025;-73
2023/04/16 05:36:31;;;;;;;2.67;1.58;;;19.50;78.70;;;;;;5012294;28;20033;-75
2023/04/16 05:38:57;;;;;;;6.00;1.98;;;19.50;78.70;;;;;;5012765;28;20030;-73
2023/04/16 05:41:22;;;;;;;20.70;2.10;;;19.50;78.50;;;;;;5013004;28;20056;-74
2023/04/16 05:43:48;;;;;;;4.45;1.73;;;19.50;78.50;;;;;;5012372;28;20037;-73
2023/04/16 05:46:13;;;;;;;24.42;2.13;;;19.50;78.50;;;;;;5001898;28;20114;-74
2023/04/16 05:48:39;;;;;;;18.73;2.03;;;19.60;78.90;;;;;;5004940;28;20116;-76
2023/04/16 05:51:04;;;;;;;17.95;1.98;;;19.60;80.00;;;;;;5006710;28;20105;-71
2023/04/16 05:53:30;;;;;;;3.90;1.90;;;19.70;79.20;;;;;;5024557;28;20034;-71
2023/04/16 18:05:05;;;;;;;12.65;1.70;;;19.80;78.70;;;;;;5054548;27;20410;-79
2023/04/16 18:07:31;;;;;;;22.50;2.25;;;22.20;77.50;;;;;;5001779;28;20487;-83
2023/04/16 18:09:56;;;;;;;10.25;2.25;;;22.10;76.80;;;;;;5017033;28;20026;-83
2023/04/16 18:12:22;;;;;;;8.02;2.00;;;22.10;76.60;;;;;;4987001;28;20140;-76
2023/04/16 18:14:48;;;;;;;32.28;2.22;;;22.10;75.90;;;;;;4988817;28;20026;-78
2023/04/16 18:17:14;;;;;;;11.63;1.67;;;22.00;76.00;;;;;;4986082;28;20050;-76
2023/04/16 18:19:42;;;;;;;10.65;2.03;;;21.90;76.10;;;;;;4984186;28;20022;-76
2023/04/16 18:22:08;;;;;;;9.00;2.33;;;21.90;76.20;;;;;;4986511;28;20018;-77
2023/04/16 18:24:35;;;;;;;10.85;1.58;;;21.80;76.20;;;;;;4984681;28;20484;-77
2023/04/16 18:27:02;;;;;;;5.53;1.58;;;21.80;76.30;;;;;;4985427;28;20034;-77
2023/04/16 18:29:27;;;;;;;17.70;3.05;;;21.70;76.30;;;;;;4980102;28;20114;-73
2023/04/16 18:31:53;;;;;;;30.13;5.95;;;21.90;76.60;;;;;;4986177;28;20491;-71
2023/04/16 18:34:19;;;;;;;26.42;5.88;;;22.00;76.90;;;;;;4981612;28;20029;-79
2023/04/16 18:36:45;;;;;;;28.25;5.38;;;22.00;76.80;;;;;;4983302;28;20069;-79
2023/04/16 18:39:11;;;;;;;47.17;5.15;;;21.90;77.00;;;;;;4982990;28;20058;-79
2023/04/16 18:41:36;;;;;;;13.85;4.45;;;21.80;77.10;;;;;;4985871;28;20313;-79
2023/04/16 18:44:02;;;;;;;29.23;4.50;;;21.70;76.90;;;;;;4983439;28;20026;-78
2023/04/16 18:46:28;;;;;;;40.20;4.57;;;21.60;77.10;;;;;;4982289;28;20039;-77
2023/04/16 18:48:53;;;;;;;19.33;3.50;;;21.60;78.50;;;;;;4985859;28;20531;-75
2023/04/16 18:51:19;;;;;;;21.95;4.28;;;21.60;77.70;;;;;;4960031;28;20505;-79
2023/04/16 18:53:45;;;;;;;21.33;3.38;;;21.60;79.00;;;;;;4963667;28;20027;-78
2023/04/16 18:56:11;;;;;;;11.18;2.95;;;21.70;77.90;;;;;;4965575;28;20030;-78
2023/04/16 18:58:36;;;;;;;10.30;2.70;;;21.70;78.00;;;;;;4967465;28;20616;-75
2023/04/16 19:01:03;;;;;;;12.55;2.65;;;21.70;78.30;;;;;;4967333;28;20669;-77
2023/04/16 19:03:29;;;;;;;21.52;2.42;;;21.70;77.50;;;;;;4968538;28;20086;-75
2023/04/16 19:05:55;;;;;;;7.55;2.47;;;21.70;77.50;;;;;;4970454;28;20473;-72
2023/04/16 19:08:21;;;;;;;7.97;2.63;;;21.70;77.40;;;;;;4966484;28;20106;-75
2023/04/16 19:10:48;;;;;;;6.32;2.55;;;21.70;77.70;;;;;;4964492;28;20035;-80
2023/04/16 19:13:14;;;;;;;6.90;1.80;;;21.70;77.20;;;;;;4963532;28;20507;-78
2023/04/16 19:15:40;;;;;;;9.90;2.22;;;21.70;77.50;;;;;;4949730;28;20046;-77
2023/04/16 19:18:06;;;;;;;8.02;2.05;;;21.70;77.10;;;;;;4948473;28;20035;-76
2023/04/16 19:20:36;;;;;;;5.53;1.70;;;21.70;76.90;;;;;;4948365;29;20433;-77
2023/04/16 19:23:04;;;;;;;14.40;2.17;;;21.80;76.80;;;;;;4953933;29;20033;-77
2023/04/16 19:25:30;;;;;;;8.88;2.10;;;21.80;76.80;;;;;;4949735;29;20538;-78
2023/04/16 19:27:56;;;;;;;12.57;1.63;;;21.80;77.10;;;;;;4953860;28;20031;-77
2023/04/16 19:30:22;;;;;;;22.90;2.13;;;21.80;76.40;;;;;;4952296;29;20024;-78
2023/04/16 19:32:47;;;;;;;10.20;2.15;;;21.90;77.70;;;;;;4951320;29;20031;-79
2023/04/16 19:35:13;;;;;;;11.50;1.90;;;21.80;77.10;;;;;;4950945;29;20042;-77
2023/04/16 19:37:38;;;;;;;9.40;2.10;;;21.90;77.20;;;;;;4949185;28;20020;-79
2023/04/16 19:40:05;;;;;;;2.63;1.67;;;21.90;77.10;;;;;;4951700;29;20027;-80
2023/04/16 19:42:31;;;;;;;6.32;1.65;;;21.90;77.80;;;;;;4949442;29;20027;-78
2023/04/16 19:44:57;;;;;;;16.90;1.75;;;21.90;75.30;;;;;;4955067;29;20035;-83
2023/04/16 19:47:23;;;;;;;5.97;1.75;;;21.80;75.40;;;;;;4954118;29;20027;-74
2023/04/16 19:49:48;;;;;;;5.20;1.20;;;21.80;75.70;;;;;;4954211;29;20085;-78
2023/04/16 19:52:15;;;;;;;6.05;1.40;;;21.70;75.70;;;;;;4944841;29;20027;-78
2023/04/16 19:54:40;;;;;;;8.10;1.42;;;21.80;75.70;;;;;;4951553;28;20023;-78
2023/04/16 19:57:06;;;;;;;3.20;1.50;;;21.70;75.60;;;;;;4952832;28;20547;-77
2023/04/16 19:59:32;;;;;;;3.25;1.40;;;21.70;75.60;;;;;;4947974;29;20103;-77
2023/04/16 20:01:57;;;;;;;24.77;2.20;;;21.70;76.30;;;;;;4951403;28;20063;-82
2023/04/16 20:04:23;;;;;;;14.95;1.95;;;21.70;75.90;;;;;;4948981;29;20069;-79
2023/04/16 20:06:49;;;;;;;5.07;1.35;;;21.70;75.40;;;;;;4947504;28;20027;-77
2023/04/16 20:09:17;;;;;;;51.92;2.95;;;21.70;75.60;;;;;;4948969;29;20477;-81
2023/04/16 20:11:42;;;;;;;36.15;1.95;;;21.70;76.10;;;;;;4946396;29;20054;-80
2023/04/16 20:14:08;;;;;;;27.98;2.28;;;21.70;77.10;;;;;;4943793;29;20489;-77
2023/04/16 20:16:37;;;;;;;48.92;2.70;;;21.70;76.50;;;;;;4949388;28;20645;-78
2023/04/16 20:19:02;;;;;;;18.40;2.95;;;21.60;76.40;;;;;;4950110;28;20023;-79
2023/04/16 20:21:28;;;;;;;7.20;2.40;;;21.50;77.20;;;;;;4951823;28;20019;-78
2023/04/16 20:23:54;;;;;;;13.57;2.53;;;21.40;77.60;;;;;;4949711;28;20027;-78
2023/04/16 20:26:22;;;;;;;8.88;2.95;;;21.40;78.10;;;;;;4942462;29;20028;-76
2023/04/16 20:28:48;;;;;;;9.75;2.10;;;21.30;78.10;;;;;;4946897;29;20528;-78
2023/04/16 20:31:13;;;;;;;15.18;2.00;;;21.20;78.10;;;;;;4948683;29;20032;-78
2023/04/16 20:33:39;;;;;;;9.20;1.60;;;21.20;78.30;;;;;;4952337;29;20027;-78
2023/04/16 20:36:05;;;;;;;6.53;2.28;;;21.20;78.30;;;;;;4947074;29;20032;-77
2023/04/16 20:38:33;;;;;;;10.57;2.00;;;21.10;78.30;;;;;;4949914;28;20019;-79
2023/04/16 20:41:08;;;;;;;19.85;2.00;;;21.10;78.50;;;;;;4950432;28;20114;-78
2023/04/16 20:43:37;;;;;;;10.30;1.58;;;21.00;78.60;;;;;;4946184;28;20393;-75
2023/04/16 20:46:03;;;;;;;8.85;1.73;;;21.00;78.70;;;;;;4953230;28;20094;-76
2023/04/16 20:48:29;;;;;;;8.40;1.60;;;21.00;78.70;;;;;;4953233;28;20031;-77
2023/04/16 20:51:02;;;;;;;6.93;1.80;;;20.90;78.80;;;;;;4950166;28;20027;-79
2023/04/16 20:53:28;;;;;;;11.95;2.28;;;20.90;78.80;;;;;;4950897;28;20034;-78
2023/04/16 20:55:54;;;;;;;4.85;1.88;;;20.80;78.90;;;;;;4951084;29;20035;-78
2023/04/16 20:58:20;;;;;;;8.48;1.65;;;20.80;79.00;;;;;;4945345;29;20363;-78
2023/04/16 21:00:50;;;;;;;3.38;1.77;;;20.80;79.10;;;;;;4949425;29;20036;-77
2023/04/16 21:03:16;;;;;;;;;;;20.80;79.10;;;;;;4949092;28;20114;-78
2023/04/16 21:05:48;;;;;;;9.13;1.95;;;20.70;79.10;;;;;;4947539;28;20404;-77
2023/04/16 21:08:17;;;;;;;10.52;1.83;;;20.70;79.30;;;;;;4949707;29;20110;-78
2023/04/16 21:10:43;;;;;;;5.60;1.90;;;20.70;79.40;;;;;;4947963;28;20094;-77
2023/04/16 21:13:12;;;;;;;3.33;1.40;;;20.60;79.40;;;;;;4949352;28;20107;-78
2023/04/16 21:15:38;;;;;;;9.40;1.77;;;20.60;79.40;;;;;;4948425;29;20560;-78
2023/04/16 21:18:05;;;;;;;5.95;2.03;;;20.60;79.50;;;;;;4947959;29;20035;-79
2023/04/16 21:20:30;;;;;;;7.95;2.35;;;20.60;79.60;;;;;;4948758;29;20062;-80
2023/04/16 21:22:56;;;;;;;5.95;1.55;;;20.60;79.60;;;;;;4950495;28;20070;-79
2023/04/16 21:25:22;;;;;;;3.17;1.50;;;20.50;79.60;;;;;;4949627;29;20023;-78
2023/04/16 21:27:48;;;;;;;4.22;1.50;;;20.50;79.60;;;;;;4949618;28;20432;-79
2023/04/16 21:30:14;;;;;;;4.03;1.30;;;20.50;79.70;;;;;;4949425;29;20115;-78
2023/04/16 21:32:40;;;;;;;3.40;1.95;;;20.50;79.70;;;;;;4949437;29;20392;-78
2023/04/16 21:35:06;;;;;;;5.93;1.50;;;20.50;79.80;;;;;;4952612;29;20031;-77
2023/04/16 21:37:31;;;;;;;3.40;1.30;;;20.40;79.80;;;;;;4949882;28;20118;-79
2023/04/16 21:39:57;;;;;;;6.22;1.88;;;20.50;79.90;;;;;;4949937;29;20069;-78
2023/04/16 21:42:23;;;;;;;1.83;1.30;;;20.40;80.00;;;;;;4952749;29;20035;-79
2023/04/16 21:44:48;;;;;;;2.97;1.60;;;20.40;80.00;;;;;;4952440;29;20031;-78
2023/04/16 21:47:14;;;;;;;2.88;1.40;;;20.40;80.00;;;;;;4950942;28;20023;-78
2023/04/16 21:49:41;;;;;;;4.20;1.85;;;20.30;80.00;;;;;;4952561;29;20074;-77
2023/04/16 21:52:16;;;;;;;6.43;1.38;;;20.30;80.30;;;;;;4952208;28;20022;-78
2023/04/16 21:54:43;;;;;;;2.50;1.20;;;20.30;80.10;;;;;;4952275;28;20027;-78
2023/04/16 21:57:08;;;;;;;4.32;1.60;;;20.30;80.10;;;;;;4951991;28;20515;-77
2023/04/16 21:59:34;;;;;;;4.40;1.40;;;20.30;80.20;;;;;;4952155;29;20107;-79
2023/04/16 22:01:59;;;;;;;4.03;1.58;;;20.20;80.20;;;;;;4952254;29;20076;-77
2023/04/16 22:04:25;;;;;;;2.25;1.30;;;20.20;80.90;;;;;;4950687;29;20067;-78
2023/04/16 22:06:55;;;;;;;5.60;1.67;;;20.20;80.30;;;;;;4951870;28;20094;-79
2023/04/16 22:09:23;;;;;;;4.28;1.30;;;20.20;80.30;;;;;;4955699;28;20020;-78
2023/04/16 22:11:50;;;;;;;3.20;1.42;;;20.20;80.40;;;;;;4954360;29;21210;-78
2023/04/16 22:14:16;;;;;;;5.63;1.35;;;20.20;80.40;;;;;;4950726;29;20445;-78
2023/04/16 22:16:43;;;;;;;2.38;1.30;;;20.20;80.40;;;;;;4951669;28;20046;-78
2023/04/16 22:19:09;;;;;;;4.18;1.40;;;20.10;80.40;;;;;;4950751;29;20548;-77
2023/04/16 22:21:35;;;;;;;4.15;1.10;;;20.10;80.40;;;;;;4950876;29;20027;-79
2023/04/16 22:24:01;;;;;;;4.07;1.30;;;20.10;80.50;;;;;;4946040;28;20670;-78
2023/04/16 22:26:27;;;;;;;2.97;1.52;;;20.10;80.50;;;;;;4950778;29;20026;-78
2023/04/16 22:28:52;;;;;;;2.72;1.20;;;20.10;80.50;;;;;;4952161;28;20027;-76
2023/04/16 22:31:18;;;;;;;1.55;1.45;;;20.10;81.30;;;;;;4951693;29;20027;-78
2023/04/16 22:33:43;;;;;;;3.33;1.30;;;20.10;80.50;;;;;;4950219;29;20027;-79
2023/04/16 22:36:09;;;;;;;6.00;1.10;;;20.10;80.60;;;;;;4947148;29;20023;-78
2023/04/16 22:38:35;;;;;;;2.22;1.20;;;20.00;80.60;;;;;;4951416;29;20026;-78
2023/04/16 22:41:01;;;;;;;3.35;1.35;;;20.00;80.60;;;;;;4949897;29;20569;-78
2023/04/16 22:43:26;;;;;;;1.60;0.90;;;20.10;80.70;;;;;;4947262;29;20035;-77
2023/04/16 22:46:03;;;;;;;1.17;1.05;;;20.00;80.70;;;;;;4949479;29;20027;-79
2023/04/16 22:48:29;;;;;;;1.67;1.15;;;20.00;80.70;;;;;;4951987;28;20381;-79
2023/04/16 22:50:55;;;;;;;2.15;0.90;;;20.00;80.70;;;;;;4952890;28;20027;-79
2023/04/16 22:53:21;;;;;;;3.45;1.08;;;20.00;80.70;;;;;;4955501;29;20453;-79
2023/04/16 22:55:46;;;;;;;2.65;1.05;;;20.00;80.70;;;;;;4953164;29;20110;-78
2023/04/16 22:58:12;;;;;;;2.05;1.10;;;20.00;80.80;;;;;;4952785;28;20047;-77
2023/04/16 23:00:38;;;;;;;1.73;1.20;;;20.00;80.80;;;;;;4953889;29;20114;-79
2023/04/16 23:03:03;;;;;;;4.07;1.23;;;20.00;80.80;;;;;;4953883;29;20755;-79
2023/04/16 23:05:29;;;;;;;2.70;1.00;;;20.00;80.80;;;;;;4955386;29;20038;-79
2023/04/16 23:07:55;;;;;;;3.83;1.10;;;19.90;80.80;;;;;;4955004;28;20024;-78
2023/04/16 23:10:20;;;;;;;1.48;1.00;;;19.90;80.80;;;;;;4953898;28;20035;-77
2023/04/16 23:12:46;;;;;;;3.42;1.35;;;19.90;80.70;;;;;;4955185;29;20436;-78
2023/04/16 23:15:11;;;;;;;4.43;1.17;;;19.90;80.80;;;;;;4954756;28;20047;-78
2023/04/16 23:17:38;;;;;;;2.13;0.90;;;19.90;80.80;;;;;;4949250;29;20033;-79
2023/04/16 23:20:05;;;;;;;1.02;0.90;;;19.90;80.80;;;;;;4954135;29;20043;-78
2023/04/16 23:22:31;;;;;;;1.83;1.17;;;19.90;80.70;;;;;;4950880;28;20434;-78
2023/04/16 23:24:56;;;;;;;1.70;0.90;;;19.90;80.70;;;;;;4948135;29;20136;-78
2023/04/16 23:27:22;;;;;;;2.40;1.00;;;19.90;80.70;;;;;;4951325;28;20015;-76
2023/04/16 23:29:48;;;;;;;1.52;1.17;;;19.90;80.70;;;;;;4952734;29;20152;-77
2023/04/16 23:32:13;;;;;;;1.45;1.15;;;19.90;80.70;;;;;;4953123;29;20019;-75
2023/04/16 23:34:40;;;;;;;1.40;0.80;;;19.80;80.60;;;;;;4953760;29;20023;-78
2023/04/16 23:37:06;;;;;;;1.13;1.00;;;19.80;80.60;;;;;;4952613;28;20035;-77
2023/04/16 23:39:31;;;;;;;2.50;1.45;;;19.80;80.60;;;;;;4950905;29;20038;-79
2023/04/16 23:41:57;;;;;;;5.63;1.05;;;19.80;80.50;;;;;;4950324;29;20035;-79
2023/04/16 23:44:22;;;;;;;0.82;0.82;;;19.80;80.50;;;;;;4954516;29;20432;-77
2023/04/16 23:46:48;;;;;;;2.03;1.00;;;19.80;80.50;;;;;;4954960;28;20102;-78
2023/04/16 23:49:13;;;;;;;0.85;0.80;;;19.80;80.60;;;;;;4954552;29;20469;-77
2023/04/16 23:51:39;;;;;;;1.77;1.13;;;19.80;80.50;;;;;;4954610;29;20497;-78
2023/04/16 23:54:05;;;;;;;1.52;1.00;;;19.80;80.50;;;;;;4943817;29;20031;-79
2023/04/16 23:56:30;;;;;;;1.65;1.10;;;19.80;80.50;;;;;;4948888;29;20026;-78
2023/04/16 23:58:56;;;;;;;2.92;1.00;;;19.80;80.60;;;;;;4949451;29;20110;-77
